createdAt,value
2022-07-25T00:01:00.874Z,3.70
2022-07-25T00:03:34.996Z,2.50
2022-07-25T00:06:13.565Z,3.08
2022-07-25T00:08:50.595Z,2.72
2022-07-25T00:13:55.914Z,4.00
2022-07-25T00:16:28.631Z,2.25
2022-07-25T00:21:35.321Z,3.15
2022-07-25T00:24:09.172Z,4.25
2022-07-25T00:26:42.523Z,2.92
2022-07-25T00:29:15.454Z,4.03
2022-07-25T00:31:48.463Z,2.83
2022-07-25T00:34:22.672Z,3.40
2022-07-25T00:36:55.387Z,2.92
2022-07-25T00:39:28.176Z,2.95
2022-07-25T00:44:34.508Z,2.30
2022-07-25T00:47:07.846Z,2.70
2022-07-25T00:49:42.048Z,2.47
2022-07-25T00:52:15.285Z,2.63
2022-07-25T00:54:48.122Z,3.40
2022-07-25T00:57:20.906Z,2.83
2022-07-25T00:59:53.660Z,2.85
2022-07-25T01:05:01.348Z,2.25
2022-07-25T01:07:34.170Z,2.47
2022-07-25T01:15:23.827Z,2.40
2022-07-25T01:17:57.053Z,2.95
2022-07-25T01:20:32.368Z,2.30
2022-07-25T01:23:05.174Z,2.90
2022-07-25T01:28:10.535Z,2.80
2022-07-25T01:30:43.360Z,2.40
2022-07-25T01:33:17.480Z,2.45
2022-07-25T01:35:51.503Z,2.83
2022-07-25T01:38:24.328Z,3.00
2022-07-25T01:40:57.025Z,2.33
2022-07-25T01:46:02.785Z,3.35
2022-07-25T01:48:36.111Z,3.28
2022-07-25T01:51:11.189Z,2.88
2022-07-25T01:53:44.633Z,2.50
2022-07-25T01:56:19.422Z,2.45
2022-07-25T01:58:55.239Z,2.85
2022-07-25T02:04:01.115Z,2.47
2022-07-25T02:06:35.343Z,3.03
2022-07-25T02:09:09.264Z,3.17
2022-07-25T02:11:42.140Z,2.97
2022-07-25T02:16:47.760Z,2.80
2022-07-25T02:19:20.641Z,2.88
2022-07-25T02:24:27.349Z,2.10
2022-07-25T02:29:33.229Z,2.75
2022-07-25T02:32:06.960Z,2.33
2022-07-25T02:34:39.624Z,3.03
2022-07-25T02:37:13.921Z,1.98
2022-07-25T02:39:46.736Z,2.38
2022-07-25T02:44:52.177Z,2.90
2022-07-25T02:49:57.890Z,2.35
2022-07-25T02:52:31.954Z,3.10
2022-07-25T02:55:09.528Z,4.95
2022-07-25T02:57:42.608Z,2.53
2022-07-25T03:00:16.834Z,3.97
2022-07-25T03:02:49.863Z,3.00
2022-07-25T03:05:23.024Z,3.25
2022-07-25T03:07:57.151Z,3.40
2022-07-25T03:10:30.198Z,3.95
2022-07-25T03:13:03.120Z,2.90
2022-07-25T03:15:36.126Z,2.65
2022-07-25T03:18:09.076Z,2.65
2022-07-25T03:20:44.325Z,3.15
2022-07-25T03:23:18.350Z,2.85
2022-07-25T03:25:51.057Z,3.05
2022-07-25T03:28:24.531Z,3.80
2022-07-25T03:30:57.349Z,3.85
2022-07-25T03:33:30.139Z,4.13
2022-07-25T03:38:36.917Z,2.50
2022-07-25T03:41:09.633Z,2.83
2022-07-25T03:46:15.207Z,2.50
2022-07-25T03:48:48.094Z,3.28
2022-07-25T03:51:21.093Z,2.22
2022-07-25T03:59:18.390Z,2.65
2022-07-25T04:01:51.888Z,4.07
2022-07-25T04:04:24.663Z,2.70
2022-07-25T04:06:57.959Z,3.58
2022-07-25T04:09:33.750Z,2.35
2022-07-25T04:12:07.994Z,2.70
2022-07-25T04:14:40.716Z,2.03
2022-07-25T04:17:13.761Z,2.92
2022-07-25T04:19:47.232Z,2.55
2022-07-25T04:22:20.040Z,3.80
2022-07-25T04:27:26.586Z,2.35
2022-07-25T04:29:59.980Z,2.35
2022-07-25T04:32:32.669Z,2.03
2022-07-25T04:35:06.104Z,2.28
2022-07-25T04:37:38.845Z,2.20
2022-07-25T04:40:13.887Z,2.47
2022-07-25T04:42:46.642Z,2.05
2022-07-25T04:45:19.422Z,2.88
2022-07-25T04:47:52.714Z,2.40
2022-07-25T04:50:25.596Z,1.83
2022-07-25T04:55:33.354Z,2.88
2022-07-25T04:58:06.136Z,2.00
2022-07-25T05:00:39.194Z,4.55
2022-07-25T05:03:12.118Z,3.75
2022-07-25T05:08:17.605Z,3.53
2022-07-25T05:10:51.669Z,1.77
2022-07-25T05:13:26.889Z,3.25
2022-07-25T05:15:59.640Z,4.28
2022-07-25T05:21:05.179Z,4.40
2022-07-25T05:23:38.038Z,4.13
2022-07-25T05:26:12.029Z,3.88
2022-07-25T05:28:44.803Z,3.45
2022-07-25T05:33:50.133Z,6.35
2022-07-25T05:36:22.827Z,4.22
2022-07-25T05:38:55.605Z,7.55
2022-07-25T05:44:02.189Z,10.18
2022-07-25T05:46:35.830Z,6.85
2022-07-25T05:49:09.339Z,7.57
2022-07-25T05:51:42.157Z,9.65
2022-07-25T05:54:14.907Z,7.72
2022-07-25T05:56:48.921Z,11.10
2022-07-25T05:59:22.170Z,12.68
2022-07-25T06:01:55.067Z,10.68
2022-07-25T06:04:27.925Z,10.68
2022-07-25T06:07:00.560Z,10.50
2022-07-25T06:09:33.287Z,9.35
2022-07-25T06:14:41.021Z,12.52
2022-07-25T06:17:13.779Z,5.00
2022-07-25T06:22:19.567Z,10.83
2022-07-25T06:24:52.196Z,8.38
2022-07-25T06:27:29.412Z,11.68
2022-07-25T06:30:03.520Z,9.55
2022-07-25T06:32:36.589Z,7.55
2022-07-25T06:35:10.011Z,9.63
2022-07-25T06:37:42.743Z,14.02
2022-07-25T06:40:15.788Z,11.30
2022-07-25T06:42:49.946Z,10.27
2022-07-25T06:45:25.211Z,8.93
2022-07-25T06:47:58.173Z,7.78
2022-07-25T06:50:31.900Z,13.05
2022-07-25T06:53:04.573Z,10.82
2022-07-25T06:55:37.358Z,10.52
2022-07-25T07:00:44.000Z,9.40
2022-07-25T07:05:50.672Z,5.55
2022-07-25T07:10:55.995Z,7.57
2022-07-25T07:13:30.031Z,7.82
2022-07-25T07:16:03.632Z,6.90
2022-07-25T07:18:36.823Z,9.30
2022-07-25T07:21:10.651Z,4.70
2022-07-25T07:23:53.579Z,5.53
2022-07-25T07:26:26.510Z,9.52
2022-07-25T07:29:00.860Z,5.93
2022-07-25T07:31:33.579Z,6.35
2022-07-25T07:34:06.328Z,10.10
2022-07-25T07:39:11.752Z,12.80
2022-07-25T07:44:18.988Z,9.00
2022-07-25T07:46:51.802Z,7.00
2022-07-25T07:51:57.324Z,7.35
2022-07-25T07:54:47.824Z,8.40
2022-07-25T07:57:20.877Z,5.40
2022-07-25T07:59:54.930Z,7.18
2022-07-25T08:02:29.252Z,8.63
2022-07-25T08:05:01.959Z,8.95
2022-07-25T08:07:34.734Z,7.10
2022-07-25T08:10:08.462Z,7.97
2022-07-25T08:12:42.567Z,8.70
2022-07-25T08:15:18.588Z,6.85
2022-07-25T08:17:52.039Z,12.57
2022-07-25T08:20:40.129Z,7.20
2022-07-25T08:23:13.086Z,8.73
2022-07-25T08:30:53.137Z,7.63
2022-07-25T08:33:26.500Z,7.35
2022-07-25T08:35:59.576Z,11.32
2022-07-25T08:38:32.332Z,9.10
2022-07-25T08:43:39.414Z,10.55
2022-07-25T08:46:16.057Z,10.85
2022-07-25T08:48:53.088Z,6.88
2022-07-25T08:51:26.712Z,12.15
2022-07-25T08:53:59.942Z,7.50
2022-07-25T08:56:32.712Z,6.55
2022-07-25T09:04:14.474Z,10.68
2022-07-25T09:06:51.449Z,10.30
2022-07-25T09:09:31.648Z,12.98
2022-07-25T09:12:04.772Z,9.10
2022-07-25T09:14:44.844Z,11.35
2022-07-25T09:17:24.264Z,9.88
2022-07-25T09:19:58.365Z,12.73
2022-07-25T09:22:31.297Z,9.07
2022-07-25T09:25:04.127Z,15.30
2022-07-25T09:30:14.519Z,9.65
2022-07-25T09:32:48.852Z,9.68
2022-07-25T09:35:31.281Z,11.18
2022-07-25T09:38:11.959Z,12.77
2022-07-25T09:40:55.788Z,10.38
2022-07-25T09:43:38.716Z,12.57
2022-07-25T09:51:19.267Z,12.13
2022-07-25T09:53:52.048Z,9.18
2022-07-25T09:58:59.002Z,14.30
2022-07-25T10:01:37.877Z,13.73
2022-07-25T10:04:20.691Z,16.98
2022-07-25T10:07:31.417Z,9.75
2022-07-25T10:10:06.685Z,9.73
2022-07-25T10:12:39.501Z,12.00
2022-07-25T10:17:46.841Z,12.02
2022-07-25T10:20:29.274Z,12.73
2022-07-25T10:23:02.351Z,13.07
2022-07-25T10:25:35.142Z,15.05
2022-07-25T10:30:43.909Z,13.75
2022-07-25T10:33:21.218Z,15.32
2022-07-25T10:36:06.265Z,11.40
2022-07-25T10:38:41.280Z,19.60
2022-07-25T10:41:16.861Z,12.82
2022-07-25T10:43:52.731Z,11.52
2022-07-25T10:46:30.752Z,9.85
2022-07-25T10:49:05.902Z,12.27
2022-07-25T10:51:42.047Z,12.80
2022-07-25T10:54:16.470Z,14.75
2022-07-25T10:56:57.251Z,16.65
2022-07-25T10:59:33.251Z,12.10
2022-07-25T11:02:08.302Z,16.92
2022-07-25T11:04:41.629Z,18.35
2022-07-25T11:07:18.646Z,15.27
2022-07-25T11:09:57.840Z,14.18
2022-07-25T11:12:31.196Z,9.60
2022-07-25T11:15:06.354Z,10.82
2022-07-25T11:17:39.054Z,11.70
2022-07-25T11:22:54.489Z,11.43
2022-07-25T11:25:27.423Z,12.07
2022-07-25T11:28:01.485Z,12.63
2022-07-25T11:30:34.158Z,11.35
2022-07-25T11:35:39.655Z,10.43
2022-07-25T11:38:14.713Z,13.50
2022-07-25T11:40:47.450Z,8.48
2022-07-25T11:45:58.171Z,14.27
2022-07-25T11:48:36.571Z,10.05
2022-07-25T11:51:18.099Z,12.02
2022-07-25T11:53:52.878Z,12.77
2022-07-25T11:56:41.895Z,10.68
2022-07-25T11:59:15.632Z,11.80
2022-07-25T12:01:48.528Z,10.55
2022-07-25T12:04:21.764Z,9.88
2022-07-25T12:07:05.513Z,13.18
2022-07-25T12:09:39.558Z,15.50
2022-07-25T12:12:12.350Z,8.15
2022-07-25T12:14:45.722Z,12.18
2022-07-25T12:17:18.414Z,12.30
2022-07-25T12:22:24.649Z,10.07
2022-07-25T12:24:58.691Z,10.45
2022-07-25T12:27:32.461Z,12.30
2022-07-25T12:30:06.604Z,10.13
2022-07-25T12:32:39.676Z,14.07
2022-07-25T12:35:14.299Z,15.93
2022-07-25T12:37:47.221Z,9.88
2022-07-25T12:40:21.707Z,9.48
2022-07-25T12:42:54.593Z,9.77
2022-07-25T12:45:27.939Z,13.55
2022-07-25T12:48:00.728Z,9.18
2022-07-25T12:53:06.064Z,12.63
2022-07-25T12:58:15.061Z,11.98
2022-07-25T13:00:49.205Z,11.52
2022-07-25T13:03:22.046Z,7.13
2022-07-25T13:08:27.493Z,8.60
2022-07-25T13:11:01.567Z,9.35
2022-07-25T13:13:34.354Z,10.68
2022-07-25T13:16:07.536Z,13.45
2022-07-25T13:18:40.318Z,9.73
2022-07-25T13:21:13.058Z,11.95
2022-07-25T13:23:46.097Z,11.00
2022-07-25T13:26:20.125Z,9.18
2022-07-25T13:28:57.934Z,13.82
2022-07-25T13:31:32.401Z,22.20
2022-07-25T13:34:05.390Z,9.98
2022-07-25T13:36:39.423Z,10.25
2022-07-25T13:39:12.198Z,11.30
2022-07-25T13:41:47.128Z,11.15
2022-07-25T13:44:20.058Z,11.02
2022-07-25T13:46:52.889Z,13.10
2022-07-25T13:49:26.028Z,11.55
2022-07-25T13:51:58.819Z,13.05
2022-07-25T13:54:31.659Z,8.75
2022-07-25T13:57:05.831Z,12.15
2022-07-25T13:59:38.879Z,14.30
2022-07-25T14:02:11.679Z,13.52
2022-07-25T14:04:46.319Z,10.43
2022-07-25T14:07:19.035Z,12.93
2022-07-25T14:09:51.697Z,16.17
2022-07-25T14:12:25.734Z,8.55
2022-07-25T14:14:58.449Z,8.38
2022-07-25T14:17:31.173Z,8.75
2022-07-25T14:20:04.302Z,10.65
2022-07-25T14:22:38.401Z,10.07
2022-07-25T14:25:12.609Z,8.40
2022-07-25T14:27:46.641Z,12.65
2022-07-25T14:30:19.476Z,10.43
2022-07-25T14:32:52.613Z,12.30
2022-07-25T14:35:31.893Z,12.98
2022-07-25T14:38:06.055Z,11.85
2022-07-25T14:40:39.432Z,11.07
2022-07-25T14:43:13.488Z,10.70
2022-07-25T14:45:46.361Z,13.63
2022-07-25T14:48:19.065Z,9.90
2022-07-25T14:50:51.755Z,11.60
2022-07-25T14:53:24.855Z,10.05
2022-07-25T14:55:57.835Z,9.00
2022-07-25T14:58:32.003Z,7.28
2022-07-25T15:01:05.163Z,9.48
2022-07-25T15:03:38.243Z,8.43
2022-07-25T15:06:10.980Z,12.80
2022-07-25T15:08:44.704Z,10.43
2022-07-25T15:11:17.517Z,11.13
2022-07-25T15:13:52.942Z,10.35
2022-07-25T15:16:25.809Z,13.65
2022-07-25T15:19:15.943Z,12.13
2022-07-25T15:21:49.699Z,9.98
2022-07-25T15:24:27.169Z,8.02
2022-07-25T15:27:02.632Z,10.75
2022-07-25T15:29:36.709Z,14.05
2022-07-25T15:32:09.500Z,12.88
2022-07-25T15:34:42.357Z,12.93
2022-07-25T15:37:15.194Z,11.95
2022-07-25T15:39:47.921Z,15.48
2022-07-25T15:42:22.613Z,11.40
2022-07-25T15:45:31.636Z,12.05
2022-07-25T15:47:52.208Z,13.68
2022-07-25T15:50:24.966Z,12.15
2022-07-25T15:52:57.648Z,13.80
2022-07-25T15:55:30.708Z,12.18
2022-07-25T15:58:03.459Z,16.42
2022-07-25T16:00:38.366Z,17.88
2022-07-25T16:03:11.974Z,17.58
2022-07-25T16:05:45.588Z,12.60
2022-07-25T16:08:18.518Z,10.82
2022-07-25T16:10:51.850Z,13.20
2022-07-25T16:13:24.552Z,14.85
2022-07-25T16:18:31.245Z,13.85
2022-07-25T16:23:41.568Z,13.02
2022-07-25T16:26:17.697Z,11.57
2022-07-25T16:31:24.450Z,14.80
2022-07-25T16:33:57.280Z,11.32
2022-07-25T16:36:30.028Z,6.85
2022-07-25T16:41:35.801Z,11.02
2022-07-25T16:46:42.616Z,9.90
2022-07-25T16:49:16.024Z,9.75
2022-07-25T16:51:48.739Z,15.25
2022-07-25T16:54:22.538Z,14.23
2022-07-25T16:56:59.433Z,11.52
2022-07-25T16:59:32.452Z,11.77
2022-07-25T17:04:39.383Z,11.90
2022-07-25T17:07:12.138Z,8.30
2022-07-25T17:09:45.555Z,13.68
2022-07-25T17:12:18.612Z,14.00
2022-07-25T17:14:51.320Z,10.25
2022-07-25T17:20:00.090Z,11.02
2022-07-25T17:22:33.078Z,10.27
2022-07-25T17:27:38.917Z,9.32
2022-07-25T17:30:12.593Z,9.50
2022-07-25T17:32:47.033Z,11.40
2022-07-25T17:35:20.209Z,12.40
2022-07-25T17:37:53.166Z,9.90
2022-07-25T17:40:26.090Z,9.18
2022-07-25T17:42:58.805Z,12.70
2022-07-25T17:48:06.148Z,11.82
2022-07-25T17:50:38.996Z,9.73
2022-07-25T17:55:44.932Z,10.77
2022-07-25T17:58:17.609Z,10.00
2022-07-25T18:00:50.251Z,10.90
2022-07-25T18:03:25.468Z,11.07
2022-07-25T18:05:58.239Z,17.80
2022-07-25T18:11:07.811Z,13.45
2022-07-25T18:13:40.556Z,13.48
2022-07-25T18:18:47.469Z,12.77
2022-07-25T18:21:20.261Z,15.30
2022-07-25T18:23:53.019Z,12.68
2022-07-25T18:31:31.816Z,13.70
2022-07-25T18:34:06.312Z,9.10
2022-07-25T18:36:41.147Z,12.15
2022-07-25T18:39:13.869Z,11.82
2022-07-25T18:41:46.541Z,13.45
2022-07-25T18:46:52.517Z,10.20
2022-07-25T18:49:27.107Z,11.02
2022-07-25T18:51:59.998Z,11.20
2022-07-25T18:57:05.770Z,15.02
2022-07-25T18:59:38.549Z,9.57
2022-07-25T19:04:45.739Z,28.92
2022-07-25T19:07:18.607Z,8.20
2022-07-25T19:12:26.490Z,12.70
2022-07-25T19:14:59.292Z,12.57
2022-07-25T19:20:08.847Z,12.20
2022-07-25T19:22:41.608Z,10.73
2022-07-25T19:27:47.067Z,14.93
2022-07-25T19:30:19.898Z,12.63
2022-07-25T19:35:27.093Z,11.45
2022-07-25T19:37:59.875Z,10.85
2022-07-25T19:43:05.620Z,10.30
2022-07-25T19:45:39.297Z,13.50
2022-07-25T19:48:12.613Z,13.40
2022-07-25T19:50:46.785Z,13.02
2022-07-25T19:53:22.134Z,14.43
2022-07-25T19:55:58.241Z,11.25
2022-07-25T20:01:09.586Z,8.55
2022-07-25T20:03:42.884Z,9.43
2022-07-25T20:06:19.743Z,11.15
2022-07-25T20:08:52.721Z,11.95
2022-07-25T20:11:25.432Z,11.80
2022-07-25T20:13:59.624Z,9.13
2022-07-25T20:16:32.570Z,12.18
2022-07-25T20:19:06.355Z,9.93
2022-07-25T20:21:41.151Z,9.18
2022-07-25T20:24:17.983Z,9.00
2022-07-25T20:26:53.737Z,10.80
2022-07-25T20:29:26.747Z,8.75
2022-07-25T20:31:59.896Z,14.82
2022-07-25T20:34:33.147Z,11.18
2022-07-25T20:37:07.223Z,15.77
2022-07-25T20:39:40.016Z,14.18
2022-07-25T20:42:14.058Z,12.52
2022-07-25T20:44:47.329Z,12.77
2022-07-25T20:47:20.139Z,12.40
2022-07-25T20:49:52.949Z,12.02
2022-07-25T20:55:00.546Z,10.45
2022-07-25T20:57:34.895Z,14.77
2022-07-25T21:00:08.781Z,10.85
2022-07-25T21:02:42.159Z,15.40
2022-07-25T21:05:15.482Z,14.23
2022-07-25T21:07:49.576Z,9.32
2022-07-25T21:10:22.872Z,12.10
2022-07-25T21:12:56.812Z,14.15
2022-07-25T21:15:30.810Z,12.30
2022-07-25T21:18:03.693Z,11.32
2022-07-25T21:23:11.310Z,13.48
2022-07-25T21:25:44.307Z,14.38
2022-07-25T21:30:49.930Z,10.25
2022-07-25T21:33:22.700Z,14.10
2022-07-25T21:35:55.586Z,12.60
2022-07-25T21:41:08.051Z,10.52
2022-07-25T21:43:41.201Z,13.23
2022-07-25T21:46:14.457Z,13.85
2022-07-25T21:49:05.133Z,13.20
2022-07-25T21:51:40.859Z,13.20
2022-07-25T21:54:15.314Z,14.57
2022-07-25T21:56:48.570Z,7.43
2022-07-25T21:59:23.185Z,11.27
2022-07-25T22:01:56.189Z,12.10
2022-07-25T22:04:29.502Z,10.90
2022-07-25T22:07:02.825Z,11.35
2022-07-25T22:09:37.042Z,11.50
2022-07-25T22:12:10.091Z,12.68
2022-07-25T22:14:42.851Z,12.98
2022-07-25T22:17:15.788Z,11.65
2022-07-25T22:22:21.859Z,13.77
2022-07-25T22:24:56.082Z,8.63
2022-07-25T22:27:29.039Z,13.93
2022-07-25T22:30:01.959Z,9.40
2022-07-25T22:35:09.328Z,12.55
2022-07-25T22:37:42.601Z,8.98
2022-07-25T22:40:16.843Z,12.65
2022-07-25T22:42:49.655Z,12.43
2022-07-25T22:47:56.990Z,11.93
2022-07-25T22:53:02.573Z,9.13
2022-07-25T22:58:09.367Z,9.75
2022-07-25T23:00:42.203Z,7.03
2022-07-25T23:05:48.245Z,11.30
2022-07-25T23:08:26.591Z,9.25
2022-07-25T23:11:00.683Z,11.38
2022-07-25T23:13:33.598Z,9.75
2022-07-25T23:18:43.473Z,10.95
2022-07-25T23:23:48.901Z,8.70
2022-07-25T23:26:22.976Z,9.30
2022-07-25T23:28:56.310Z,7.28
2022-07-25T23:31:29.268Z,10.07
2022-07-25T23:34:02.207Z,11.15
2022-07-25T23:39:08.890Z,12.97
2022-07-25T23:41:49.191Z,7.68
2022-07-25T23:44:21.996Z,6.35
2022-07-25T23:46:59.768Z,8.55
2022-07-25T23:49:34.194Z,7.75
2022-07-25T23:52:07.068Z,8.90
2022-07-25T23:57:15.010Z,8.25
2022-07-25T23:59:47.871Z,6.32
